sensor_id;sensor_type;location;lat;lon;timestamp;pressure;altitude;pressure_sealevel;temperature;humidity
37764;BME280;23602;51.084;7.090;2023-04-06T00:02:24;100347.22;;;0.60;100.00
37764;BME280;23602;51.084;7.090;2023-04-06T00:04:49;100340.25;;;0.59;100.00
37764;BME280;23602;51.084;7.090;2023-04-06T00:07:15;100345.28;;;0.62;100.00
37764;BME280;23602;51.084;7.090;2023-04-06T00:09:40;100341.91;;;0.51;100.00
37764;BME280;23602;51.084;7.090;2023-04-06T00:12:06;100338.88;;;0.55;100.00
37764;BME280;23602;51.084;7.090;2023-04-06T00:14:31;100342.91;;;0.50;100.00
37764;BME280;23602;51.084;7.090;2023-04-06T00:16:56;100342.75;;;0.51;100.00
37764;BME280;23602;51.084;7.090;2023-04-06T00:19:22;100342.34;;;0.46;100.00
37764;BME280;23602;51.084;7.090;2023-04-06T00:21:48;100338.88;;;0.46;100.00
37764;BME280;23602;51.084;7.090;2023-04-06T00:24:13;100332.47;;;0.39;100.00
37764;BME280;23602;51.084;7.090;2023-04-06T00:26:38;100332.75;;;0.36;100.00
37764;BME280;23602;51.084;7.090;2023-04-06T00:29:04;100334.59;;;0.35;100.00
37764;BME280;23602;51.084;7.090;2023-04-06T00:31:29;100330.09;;;0.36;100.00
37764;BME280;23602;51.084;7.090;2023-04-06T00:33:55;100334.72;;;0.24;100.00
37764;BME280;23602;51.084;7.090;2023-04-06T00:36:20;100331.38;;;0.22;100.00
37764;BME280;23602;51.084;7.090;2023-04-06T00:38:46;100332.50;;;0.20;100.00
37764;BME280;23602;51.084;7.090;2023-04-06T00:41:11;100331.66;;;0.19;100.00
37764;BME280;23602;51.084;7.090;2023-04-06T00:43:36;100330.28;;;0.15;100.00
37764;BME280;23602;51.084;7.090;2023-04-06T00:46:02;100329.56;;;0.13;100.00
37764;BME280;23602;51.084;7.090;2023-04-06T00:48:27;100333.88;;;0.14;100.00
37764;BME280;23602;51.084;7.090;2023-04-06T00:50:55;100335.00;;;0.21;100.00
37764;BME280;23602;51.084;7.090;2023-04-06T00:53:20;100328.19;;;0.19;100.00
37764;BME280;23602;51.084;7.090;2023-04-06T00:55:46;100322.88;;;0.19;100.00
37764;BME280;23602;51.084;7.090;2023-04-06T00:58:12;100318.72;;;0.16;100.00
37764;BME280;23602;51.084;7.090;2023-04-06T01:00:37;100323.31;;;0.14;100.00
37764;BME280;23602;51.084;7.090;2023-04-06T01:03:02;100323.47;;;0.13;100.00
37764;BME280;23602;51.084;7.090;2023-04-06T01:05:32;100314.00;;;0.10;100.00
37764;BME280;23602;51.084;7.090;2023-04-06T01:07:58;100310.38;;;0.11;100.00
37764;BME280;23602;51.084;7.090;2023-04-06T01:10:27;100303.28;;;0.02;100.00
37764;BME280;23602;51.084;7.090;2023-04-06T01:12:52;100303.16;;;0.04;100.00
37764;BME280;23602;51.084;7.090;2023-04-06T01:15:18;100305.50;;;-0.03;100.00
37764;BME280;23602;51.084;7.090;2023-04-06T01:17:44;100300.78;;;0.00;100.00
37764;BME280;23602;51.084;7.090;2023-04-06T01:20:10;100300.50;;;-0.06;100.00
37764;BME280;23602;51.084;7.090;2023-04-06T01:22:35;100297.59;;;-0.03;100.00
37764;BME280;23602;51.084;7.090;2023-04-06T01:25:00;100296.59;;;-0.02;100.00
37764;BME280;23602;51.084;7.090;2023-04-06T01:27:26;100295.22;;;0.04;100.00
37764;BME280;23602;51.084;7.090;2023-04-06T01:29:53;100294.53;;;0.11;100.00
37764;BME280;23602;51.084;7.090;2023-04-06T01:32:18;100283.25;;;0.09;100.00
37764;BME280;23602;51.084;7.090;2023-04-06T01:34:44;100288.13;;;0.04;100.00
37764;BME280;23602;51.084;7.090;2023-04-06T01:37:09;100283.53;;;0.06;100.00
37764;BME280;23602;51.084;7.090;2023-04-06T01:39:35;100281.72;;;0.07;100.00
37764;BME280;23602;51.084;7.090;2023-04-06T01:42:00;100272.28;;;0.04;100.00
37764;BME280;23602;51.084;7.090;2023-04-06T01:44:26;100270.47;;;0.05;100.00
37764;BME280;23602;51.084;7.090;2023-04-06T01:46:51;100266.59;;;-0.01;100.00
37764;BME280;23602;51.084;7.090;2023-04-06T01:49:17;100262.41;;;-0.04;100.00
37764;BME280;23602;51.084;7.090;2023-04-06T01:51:42;100268.94;;;0.02;100.00
37764;BME280;23602;51.084;7.090;2023-04-06T01:54:08;100265.31;;;0.03;100.00
37764;BME280;23602;51.084;7.090;2023-04-06T01:56:33;100271.88;;;-0.01;100.00
37764;BME280;23602;51.084;7.090;2023-04-06T01:58:58;100261.16;;;-0.09;100.00
37764;BME280;23602;51.084;7.090;2023-04-06T02:01:24;100266.28;;;-0.08;100.00
37764;BME280;23602;51.084;7.090;2023-04-06T02:03:49;100265.59;;;-0.10;100.00
37764;BME280;23602;51.084;7.090;2023-04-06T02:06:15;100258.25;;;-0.16;100.00
37764;BME280;23602;51.084;7.090;2023-04-06T02:08:40;100257.13;;;-0.13;100.00
37764;BME280;23602;51.084;7.090;2023-04-06T02:11:06;100261.69;;;-0.15;100.00
37764;BME280;23602;51.084;7.090;2023-04-06T02:13:31;100254.34;;;-0.21;100.00
37764;BME280;23602;51.084;7.090;2023-04-06T02:15:57;100259.63;;;-0.21;100.00
37764;BME280;23602;51.084;7.090;2023-04-06T02:18:22;100260.31;;;-0.19;100.00
37764;BME280;23602;51.084;7.090;2023-04-06T02:20:48;100262.13;;;-0.20;100.00
37764;BME280;23602;51.084;7.090;2023-04-06T02:23:13;100258.22;;;-0.25;100.00
37764;BME280;23602;51.084;7.090;2023-04-06T02:25:39;100257.41;;;-0.26;100.00
37764;BME280;23602;51.084;7.090;2023-04-06T02:28:05;100258.53;;;-0.28;100.00
37764;BME280;23602;51.084;7.090;2023-04-06T02:30:30;100259.75;;;-0.32;100.00
37764;BME280;23602;51.084;7.090;2023-04-06T02:32:57;100258.09;;;-0.33;100.00
37764;BME280;23602;51.084;7.090;2023-04-06T02:35:24;100258.22;;;-0.35;100.00
37764;BME280;23602;51.084;7.090;2023-04-06T02:37:49;100256.41;;;-0.34;100.00
37764;BME280;23602;51.084;7.090;2023-04-06T02:40:15;100255.16;;;-0.40;100.00
37764;BME280;23602;51.084;7.090;2023-04-06T02:42:40;100255.56;;;-0.44;100.00
37764;BME280;23602;51.084;7.090;2023-04-06T02:45:06;100252.66;;;-0.41;100.00
37764;BME280;23602;51.084;7.090;2023-04-06T02:47:32;100252.09;;;-0.45;100.00
37764;BME280;23602;51.084;7.090;2023-04-06T02:49:57;100245.97;;;-0.45;100.00
37764;BME280;23602;51.084;7.090;2023-04-06T02:52:23;100249.88;;;-0.49;100.00
37764;BME280;23602;51.084;7.090;2023-04-06T02:54:48;100249.44;;;-0.54;100.00
37764;BME280;23602;51.084;7.090;2023-04-06T02:57:17;100243.22;;;-0.53;100.00
37764;BME280;23602;51.084;7.090;2023-04-06T02:59:43;100250.66;;;-0.58;100.00
37764;BME280;23602;51.084;7.090;2023-04-06T03:02:09;100244.44;;;-0.57;100.00
37764;BME280;23602;51.084;7.090;2023-04-06T03:04:35;100245.13;;;-0.55;100.00
37764;BME280;23602;51.084;7.090;2023-04-06T03:07:01;100248.50;;;-0.53;100.00
37764;BME280;23602;51.084;7.090;2023-04-06T03:09:26;100242.63;;;-0.57;100.00
37764;BME280;23602;51.084;7.090;2023-04-06T03:11:52;100245.69;;;-0.61;100.00
37764;BME280;23602;51.084;7.090;2023-04-06T03:14:17;100244.16;;;-0.54;100.00
37764;BME280;23602;51.084;7.090;2023-04-06T03:16:47;100247.66;;;-0.54;100.00
37764;BME280;23602;51.084;7.090;2023-04-06T03:19:12;100244.44;;;-0.57;100.00
37764;BME280;23602;51.084;7.090;2023-04-06T03:21:38;100246.22;;;-0.58;100.00
37764;BME280;23602;51.084;7.090;2023-04-06T03:24:04;100236.78;;;-0.60;100.00
37764;BME280;23602;51.084;7.090;2023-04-06T03:26:30;100249.03;;;-0.59;100.00
37764;BME280;23602;51.084;7.090;2023-04-06T03:28:55;100243.84;;;-0.61;100.00
37764;BME280;23602;51.084;7.090;2023-04-06T03:31:21;100241.22;;;-0.61;100.00
37764;BME280;23602;51.084;7.090;2023-04-06T03:33:46;100257.91;;;-0.60;100.00
37764;BME280;23602;51.084;7.090;2023-04-06T03:36:14;100250.25;;;-0.64;100.00
37764;BME280;23602;51.084;7.090;2023-04-06T03:38:39;100264.53;;;-0.66;100.00
37764;BME280;23602;51.084;7.090;2023-04-06T03:41:05;100252.34;;;-0.57;100.00
37764;BME280;23602;51.084;7.090;2023-04-06T03:43:30;100254.81;;;-0.66;100.00
37764;BME280;23602;51.084;7.090;2023-04-06T03:45:56;100262.31;;;-0.71;100.00
37764;BME280;23602;51.084;7.090;2023-04-06T03:48:21;100257.44;;;-0.75;100.00
37764;BME280;23602;51.084;7.090;2023-04-06T03:50:47;100266.22;;;-0.75;100.00
37764;BME280;23602;51.084;7.090;2023-04-06T03:53:12;100261.88;;;-0.76;100.00
37764;BME280;23602;51.084;7.090;2023-04-06T03:55:38;100263.41;;;-0.73;100.00
37764;BME280;23602;51.084;7.090;2023-04-06T03:58:03;100261.63;;;-0.73;100.00
37764;BME280;23602;51.084;7.090;2023-04-06T04:00:29;100267.75;;;-0.72;100.00
37764;BME280;23602;51.084;7.090;2023-04-06T04:02:54;100265.09;;;-0.72;100.00
37764;BME280;23602;51.084;7.090;2023-04-06T04:05:20;100261.63;;;-0.73;100.00
37764;BME280;23602;51.084;7.090;2023-04-06T04:07:49;100265.50;;;-0.77;100.00
37764;BME280;23602;51.084;7.090;2023-04-06T04:10:15;100263.81;;;-0.78;100.00
37764;BME280;23602;51.084;7.090;2023-04-06T04:12:40;100267.03;;;-0.74;100.00
37764;BME280;23602;51.084;7.090;2023-04-06T04:15:09;100265.78;;;-0.70;100.00
37764;BME280;23602;51.084;7.090;2023-04-06T04:17:34;100259.69;;;-0.71;100.00
37764;BME280;23602;51.084;7.090;2023-04-06T04:20:00;100260.38;;;-0.69;100.00
37764;BME280;23602;51.084;7.090;2023-04-06T04:22:26;100255.66;;;-0.65;100.00
37764;BME280;23602;51.084;7.090;2023-04-06T04:24:52;100260.69;;;-0.62;100.00
37764;BME280;23602;51.084;7.090;2023-04-06T04:27:18;100259.44;;;-0.58;100.00
37764;BME280;23602;51.084;7.090;2023-04-06T04:29:46;100262.22;;;-0.59;100.00
37764;BME280;23602;51.084;7.090;2023-04-06T04:32:12;100251.25;;;-0.55;100.00
37764;BME280;23602;51.084;7.090;2023-04-06T04:34:37;100251.25;;;-0.55;100.00
37764;BME280;23602;51.084;7.090;2023-04-06T04:37:05;100245.56;;;-0.50;100.00
37764;BME280;23602;51.084;7.090;2023-04-06T04:39:30;100242.91;;;-0.50;100.00
37764;BME280;23602;51.084;7.090;2023-04-06T04:41:56;100237.50;;;-0.49;100.00
37764;BME280;23602;51.084;7.090;2023-04-06T04:44:21;100235.81;;;-0.50;100.00
37764;BME280;23602;51.084;7.090;2023-04-06T04:46:46;100234.03;;;-0.49;100.00
37764;BME280;23602;51.084;7.090;2023-04-06T04:49:12;100240.41;;;-0.52;100.00
37764;BME280;23602;51.084;7.090;2023-04-06T04:51:37;100243.31;;;-0.55;100.00
37764;BME280;23602;51.084;7.090;2023-04-06T04:54:03;100238.88;;;-0.54;100.00
37764;BME280;23602;51.084;7.090;2023-04-06T04:56:28;100238.03;;;-0.55;100.00
37764;BME280;23602;51.084;7.090;2023-04-06T04:58:54;100234.97;;;-0.60;100.00
37764;BME280;23602;51.084;7.090;2023-04-06T05:01:19;100238.47;;;-0.59;100.00
37764;BME280;23602;51.084;7.090;2023-04-06T05:03:45;100236.94;;;-0.62;100.00
37764;BME280;23602;51.084;7.090;2023-04-06T05:06:10;100231.78;;;-0.64;100.00
37764;BME280;23602;51.084;7.090;2023-04-06T05:08:36;100235.13;;;-0.61;100.00
37764;BME280;23602;51.084;7.090;2023-04-06T05:11:02;100237.03;;;-0.64;100.00
37764;BME280;23602;51.084;7.090;2023-04-06T05:13:32;100234.28;;;-0.62;100.00
37764;BME280;23602;51.084;7.090;2023-04-06T05:15:58;100234.84;;;-0.58;100.00
37764;BME280;23602;51.084;7.090;2023-04-06T05:18:23;100236.09;;;-0.53;100.00
37764;BME280;23602;51.084;7.090;2023-04-06T05:20:48;100235.97;;;-0.51;100.00
37764;BME280;23602;51.084;7.090;2023-04-06T05:23:14;100243.63;;;-0.48;100.00
37764;BME280;23602;51.084;7.090;2023-04-06T05:25:40;100237.34;;;-0.47;100.00
37764;BME280;23602;51.084;7.090;2023-04-06T05:28:05;100234.72;;;-0.47;100.00
37764;BME280;23602;51.084;7.090;2023-04-06T05:30:31;100238.34;;;-0.39;100.00
37764;BME280;23602;51.084;7.090;2023-04-06T05:32:56;100228.22;;;-0.34;100.00
37764;BME280;23602;51.084;7.090;2023-04-06T05:35:22;100231.28;;;-0.29;100.00
37764;BME280;23602;51.084;7.090;2023-04-06T05:37:47;100229.16;;;-0.25;100.00
37764;BME280;23602;51.084;7.090;2023-04-06T05:40:16;100235.59;;;-0.18;100.00
37764;BME280;23602;51.084;7.090;2023-04-06T05:42:41;100240.44;;;-0.14;100.00
37764;BME280;23602;51.084;7.090;2023-04-06T05:45:08;100239.19;;;-0.10;100.00
37764;BME280;23602;51.084;7.090;2023-04-06T05:47:33;100240.44;;;-0.04;100.00
37764;BME280;23602;51.084;7.090;2023-04-06T05:49:59;100239.63;;;0.05;100.00
37764;BME280;23602;51.084;7.090;2023-04-06T05:52:24;100243.63;;;0.09;100.00
37764;BME280;23602;51.084;7.090;2023-04-06T05:54:50;100237.38;;;0.10;100.00
37764;BME280;23602;51.084;7.090;2023-04-06T05:57:15;100235.16;;;0.15;100.00
37764;BME280;23602;51.084;7.090;2023-04-06T05:59:41;100245.56;;;0.17;100.00
37764;BME280;23602;51.084;7.090;2023-04-06T06:02:07;100240.13;;;0.18;100.00
37764;BME280;23602;51.084;7.090;2023-04-06T06:04:32;100243.50;;;0.20;100.00
37764;BME280;23602;51.084;7.090;2023-04-06T06:06:57;100241.53;;;0.22;100.00
37764;BME280;23602;51.084;7.090;2023-04-06T06:09:23;100240.41;;;0.25;100.00
37764;BME280;23602;51.084;7.090;2023-04-06T06:11:48;100231.09;;;0.30;100.00
37764;BME280;23602;51.084;7.090;2023-04-06T06:14:14;100239.84;;;0.31;100.00
37764;BME280;23602;51.084;7.090;2023-04-06T06:16:40;100237.31;;;0.39;100.00
37764;BME280;23602;51.084;7.090;2023-04-06T06:19:05;100234.25;;;0.43;100.00
37764;BME280;23602;51.084;7.090;2023-04-06T06:21:31;100229.66;;;0.45;100.00
37764;BME280;23602;51.084;7.090;2023-04-06T06:23:56;100229.47;;;0.56;100.00
37764;BME280;23602;51.084;7.090;2023-04-06T06:26:22;100230.59;;;0.63;100.00
37764;BME280;23602;51.084;7.090;2023-04-06T06:28:47;100232.13;;;0.66;100.00
37764;BME280;23602;51.084;7.090;2023-04-06T06:31:12;100233.31;;;0.72;100.00
37764;BME280;23602;51.084;7.090;2023-04-06T06:33:38;100230.56;;;0.73;100.00
37764;BME280;23602;51.084;7.090;2023-04-06T06:36:03;100227.47;;;0.78;100.00
37764;BME280;23602;51.084;7.090;2023-04-06T06:38:29;100224.34;;;0.92;100.00
37764;BME280;23602;51.084;7.090;2023-04-06T06:40:54;100225.44;;;0.99;100.00
37764;BME280;23602;51.084;7.090;2023-04-06T06:43:19;100221.22;;;1.06;100.00
37764;BME280;23602;51.084;7.090;2023-04-06T06:45:45;100222.44;;;1.11;100.00
37764;BME280;23602;51.084;7.090;2023-04-06T06:48:10;100220.03;;;1.18;100.00
37764;BME280;23602;51.084;7.090;2023-04-06T06:50:36;100216.66;;;1.25;100.00
37764;BME280;23602;51.084;7.090;2023-04-06T06:53:01;100211.63;;;1.32;100.00
37764;BME280;23602;51.084;7.090;2023-04-06T06:55:26;100214.19;;;1.42;100.00
37764;BME280;23602;51.084;7.090;2023-04-06T06:57:52;100205.41;;;1.59;100.00
37764;BME280;23602;51.084;7.090;2023-04-06T07:00:18;100206.00;;;1.70;100.00
37764;BME280;23602;51.084;7.090;2023-04-06T07:02:45;100210.97;;;1.83;100.00
37764;BME280;23602;51.084;7.090;2023-04-06T07:05:10;100203.97;;;2.00;100.00
37764;BME280;23602;51.084;7.090;2023-04-06T07:07:53;100213.44;;;2.02;100.00
37764;BME280;23602;51.084;7.090;2023-04-06T07:10:26;100205.69;;;2.09;100.00
37764;BME280;23602;51.084;7.090;2023-04-06T07:12:52;100199.06;;;2.30;100.00
37764;BME280;23602;51.084;7.090;2023-04-06T07:15:17;100200.09;;;2.37;100.00
37764;BME280;23602;51.084;7.090;2023-04-06T07:17:42;100181.72;;;2.36;100.00
37764;BME280;23602;51.084;7.090;2023-04-06T07:20:14;100183.28;;;2.54;100.00
37764;BME280;23602;51.084;7.090;2023-04-06T07:22:42;100186.34;;;2.68;100.00
37764;BME280;23602;51.084;7.090;2023-04-06T07:25:08;100187.91;;;2.78;100.00
37764;BME280;23602;51.084;7.090;2023-04-06T07:27:33;100180.66;;;2.88;100.00
37764;BME280;23602;51.084;7.090;2023-04-06T07:30:01;100191.69;;;3.09;100.00
37764;BME280;23602;51.084;7.090;2023-04-06T07:32:26;100184.31;;;3.45;100.00
37764;BME280;23602;51.084;7.090;2023-04-06T07:34:55;100188.16;;;3.59;100.00
37764;BME280;23602;51.084;7.090;2023-04-06T07:37:21;100190.69;;;3.68;100.00
37764;BME280;23602;51.084;7.090;2023-04-06T07:39:46;100185.03;;;3.96;100.00
37764;BME280;23602;51.084;7.090;2023-04-06T07:42:12;100177.53;;;4.15;100.00
37764;BME280;23602;51.084;7.090;2023-04-06T07:44:38;100179.19;;;4.32;100.00
37764;BME280;23602;51.084;7.090;2023-04-06T07:47:03;100173.09;;;4.79;100.00
37764;BME280;23602;51.084;7.090;2023-04-06T07:49:29;100164.16;;;5.10;100.00
37764;BME280;23602;51.084;7.090;2023-04-06T07:51:57;100163.75;;;5.44;100.00
37764;BME280;23602;51.084;7.090;2023-04-06T07:54:23;100161.53;;;5.87;100.00
37764;BME280;23602;51.084;7.090;2023-04-06T07:56:49;100170.94;;;6.34;100.00
37764;BME280;23602;51.084;7.090;2023-04-06T07:59:14;100162.13;;;6.78;100.00
37764;BME280;23602;51.084;7.090;2023-04-06T08:01:40;100168.91;;;6.95;100.00
37764;BME280;23602;51.084;7.090;2023-04-06T08:04:05;100166.34;;;7.02;90.07
37764;BME280;23602;51.084;7.090;2023-04-06T08:06:34;100162.34;;;7.12;100.00
37764;BME280;23602;51.084;7.090;2023-04-06T08:09:01;100166.06;;;7.11;93.04
37764;BME280;23602;51.084;7.090;2023-04-06T08:11:26;100168.16;;;7.16;100.00
37764;BME280;23602;51.084;7.090;2023-04-06T08:13:53;100167.28;;;7.44;100.00
37764;BME280;23602;51.084;7.090;2023-04-06T08:16:20;100166.97;;;7.75;100.00
37764;BME280;23602;51.084;7.090;2023-04-06T08:18:49;100154.41;;;7.97;98.18
37764;BME280;23602;51.084;7.090;2023-04-06T08:21:14;100159.88;;;8.59;100.00
37764;BME280;23602;51.084;7.090;2023-04-06T08:23:39;100149.47;;;9.18;80.85
37764;BME280;23602;51.084;7.090;2023-04-06T08:26:05;100152.66;;;9.54;85.66
37764;BME280;23602;51.084;7.090;2023-04-06T08:28:30;100152.09;;;9.72;77.07
37764;BME280;23602;51.084;7.090;2023-04-06T08:30:59;100152.69;;;9.74;69.33
37764;BME280;23602;51.084;7.090;2023-04-06T08:33:27;100155.38;;;9.74;75.58
37764;BME280;23602;51.084;7.090;2023-04-06T08:35:56;100148.22;;;9.94;81.46
37764;BME280;23602;51.084;7.090;2023-04-06T08:38:31;100151.72;;;10.01;72.57
37764;BME280;23602;51.084;7.090;2023-04-06T08:40:57;100143.06;;;9.99;71.06
37764;BME280;23602;51.084;7.090;2023-04-06T08:43:25;100144.94;;;10.44;68.48
37764;BME280;23602;51.084;7.090;2023-04-06T08:45:52;100143.06;;;10.45;61.99
37764;BME280;23602;51.084;7.090;2023-04-06T08:48:17;100143.69;;;10.21;58.47
37764;BME280;23602;51.084;7.090;2023-04-06T08:50:43;100141.56;;;10.55;57.91
37764;BME280;23602;51.084;7.090;2023-04-06T08:53:11;100133.16;;;11.09;64.16
37764;BME280;23602;51.084;7.090;2023-04-06T08:55:44;100130.84;;;10.62;56.46
37764;BME280;23602;51.084;7.090;2023-04-06T08:58:10;100127.16;;;10.50;56.74
37764;BME280;23602;51.084;7.090;2023-04-06T09:00:37;100135.91;;;10.96;61.73
37764;BME280;23602;51.084;7.090;2023-04-06T09:03:03;100139.69;;;11.33;60.11
37764;BME280;23602;51.084;7.090;2023-04-06T09:05:43;100135.72;;;10.91;55.49
37764;BME280;23602;51.084;7.090;2023-04-06T09:08:10;100138.16;;;11.06;60.69
37764;BME280;23602;51.084;7.090;2023-04-06T09:10:40;100141.16;;;11.67;59.63
37764;BME280;23602;51.084;7.090;2023-04-06T09:13:08;100143.16;;;12.34;63.77
37764;BME280;23602;51.084;7.090;2023-04-06T09:15:34;100139.34;;;12.66;63.79
37764;BME280;23602;51.084;7.090;2023-04-06T09:18:00;100141.13;;;12.04;60.15
37764;BME280;23602;51.084;7.090;2023-04-06T09:20:25;100141.53;;;11.77;60.37
37764;BME280;23602;51.084;7.090;2023-04-06T09:22:54;100134.59;;;11.56;53.04
37764;BME280;23602;51.084;7.090;2023-04-06T09:25:21;100138.63;;;11.34;57.05
37764;BME280;23602;51.084;7.090;2023-04-06T09:27:48;100132.88;;;11.30;53.63
37764;BME280;23602;51.084;7.090;2023-04-06T09:30:13;100132.94;;;11.55;63.25
37764;BME280;23602;51.084;7.090;2023-04-06T09:32:50;100139.81;;;11.82;55.55
37764;BME280;23602;51.084;7.090;2023-04-06T09:35:23;100131.97;;;10.99;54.32
37764;BME280;23602;51.084;7.090;2023-04-06T09:37:58;100132.47;;;11.27;57.07
37764;BME280;23602;51.084;7.090;2023-04-06T09:40:23;100136.78;;;11.72;62.01
37764;BME280;23602;51.084;7.090;2023-04-06T09:42:56;100126.19;;;11.77;57.26
37764;BME280;23602;51.084;7.090;2023-04-06T09:45:25;100119.66;;;11.60;54.81
37764;BME280;23602;51.084;7.090;2023-04-06T09:48:12;100124.53;;;10.94;54.88
37764;BME280;23602;51.084;7.090;2023-04-06T09:50:40;100123.13;;;10.85;55.15
37764;BME280;23602;51.084;7.090;2023-04-06T09:53:08;100120.25;;;11.31;57.18
37764;BME280;23602;51.084;7.090;2023-04-06T09:55:40;100115.31;;;11.90;58.44
37764;BME280;23602;51.084;7.090;2023-04-06T09:58:06;100113.78;;;12.26;57.22
37764;BME280;23602;51.084;7.090;2023-04-06T10:00:34;100113.31;;;12.72;59.35
37764;BME280;23602;51.084;7.090;2023-04-06T10:05:41;100099.09;;;13.49;52.08
37764;BME280;23602;51.084;7.090;2023-04-06T10:08:10;100104.09;;;12.43;52.02
37764;BME280;23602;51.084;7.090;2023-04-06T10:10:48;100113.78;;;11.76;52.63
37764;BME280;23602;51.084;7.090;2023-04-06T10:13:26;100111.44;;;12.11;55.80
37764;BME280;23602;51.084;7.090;2023-04-06T10:15:52;100107.28;;;12.58;55.29
37764;BME280;23602;51.084;7.090;2023-04-06T10:18:31;100096.38;;;12.46;53.01
37764;BME280;23602;51.084;7.090;2023-04-06T10:23:45;100102.94;;;13.11;51.80
37764;BME280;23602;51.084;7.090;2023-04-06T10:26:15;100097.59;;;13.05;51.54
37764;BME280;23602;51.084;7.090;2023-04-06T10:28:41;100092.72;;;13.73;54.22
37764;BME280;23602;51.084;7.090;2023-04-06T10:31:12;100097.16;;;14.20;52.02
37764;BME280;23602;51.084;7.090;2023-04-06T10:33:37;100097.28;;;14.37;54.98
37764;BME280;23602;51.084;7.090;2023-04-06T10:36:09;100091.50;;;14.10;48.14
37764;BME280;23602;51.084;7.090;2023-04-06T10:38:45;100101.88;;;14.71;53.39
37764;BME280;23602;51.084;7.090;2023-04-06T10:41:11;100096.28;;;13.97;49.43
37764;BME280;23602;51.084;7.090;2023-04-06T10:43:39;100085.22;;;13.75;53.89
37764;BME280;23602;51.084;7.090;2023-04-06T10:46:10;100085.81;;;13.77;54.45
37764;BME280;23602;51.084;7.090;2023-04-06T10:48:38;100088.44;;;13.95;55.93
37764;BME280;23602;51.084;7.090;2023-04-06T10:51:15;100088.50;;;14.41;52.64
37764;BME280;23602;51.084;7.090;2023-04-06T10:53:46;100091.34;;;13.41;51.02
37764;BME280;23602;51.084;7.090;2023-04-06T10:56:15;100094.97;;;13.76;51.86
37764;BME280;23602;51.084;7.090;2023-04-06T10:58:44;100087.72;;;14.11;53.09
37764;BME280;23602;51.084;7.090;2023-04-06T11:01:11;100084.75;;;14.31;54.27
37764;BME280;23602;51.084;7.090;2023-04-06T11:03:49;100080.00;;;14.49;51.10
37764;BME280;23602;51.084;7.090;2023-04-06T11:06:21;100079.63;;;14.81;55.00
37764;BME280;23602;51.084;7.090;2023-04-06T11:08:49;100073.78;;;15.12;52.83
37764;BME280;23602;51.084;7.090;2023-04-06T11:11:16;100076.31;;;15.30;53.08
37764;BME280;23602;51.084;7.090;2023-04-06T11:13:44;100075.16;;;15.54;51.46
37764;BME280;23602;51.084;7.090;2023-04-06T11:16:29;100074.69;;;15.46;48.06
37764;BME280;23602;51.084;7.090;2023-04-06T11:18:58;100078.00;;;15.48;49.44
37764;BME280;23602;51.084;7.090;2023-04-06T11:26:38;100066.94;;;14.70;48.00
37764;BME280;23602;51.084;7.090;2023-04-06T11:29:06;100061.47;;;14.41;46.73
37764;BME280;23602;51.084;7.090;2023-04-06T11:31:37;100068.81;;;14.00;48.25
37764;BME280;23602;51.084;7.090;2023-04-06T11:34:11;100064.47;;;13.99;49.00
37764;BME280;23602;51.084;7.090;2023-04-06T11:36:39;100066.81;;;13.95;48.05
37764;BME280;23602;51.084;7.090;2023-04-06T11:39:18;100055.56;;;13.98;47.43
37764;BME280;23602;51.084;7.090;2023-04-06T11:41:47;100049.19;;;14.27;49.33
37764;BME280;23602;51.084;7.090;2023-04-06T11:44:32;100047.41;;;14.79;52.75
37764;BME280;23602;51.084;7.090;2023-04-06T11:47:01;100049.06;;;15.08;51.31
37764;BME280;23602;51.084;7.090;2023-04-06T11:49:38;100046.59;;;15.07;46.85
37764;BME280;23602;51.084;7.090;2023-04-06T11:52:14;100048.53;;;15.23;52.08
37764;BME280;23602;51.084;7.090;2023-04-06T11:54:42;100052.28;;;14.42;47.86
37764;BME280;23602;51.084;7.090;2023-04-06T11:57:08;100049.34;;;14.21;49.85
37764;BME280;23602;51.084;7.090;2023-04-06T11:59:33;100058.38;;;14.15;50.87
37764;BME280;23602;51.084;7.090;2023-04-06T12:02:08;100046.03;;;14.30;52.16
37764;BME280;23602;51.084;7.090;2023-04-06T12:04:43;100048.03;;;14.00;47.10
37764;BME280;23602;51.084;7.090;2023-04-06T12:07:11;100042.84;;;13.87;49.40
37764;BME280;23602;51.084;7.090;2023-04-06T12:09:40;100045.53;;;13.87;51.05
37764;BME280;23602;51.084;7.090;2023-04-06T12:12:18;100045.00;;;14.08;49.23
37764;BME280;23602;51.084;7.090;2023-04-06T12:14:46;100041.34;;;14.03;50.75
37764;BME280;23602;51.084;7.090;2023-04-06T12:17:21;100047.31;;;14.16;52.53
37764;BME280;23602;51.084;7.090;2023-04-06T12:19:47;100046.59;;;13.74;51.47
37764;BME280;23602;51.084;7.090;2023-04-06T12:22:25;100043.72;;;13.58;50.45
37764;BME280;23602;51.084;7.090;2023-04-06T12:24:53;100049.03;;;13.76;52.28
37764;BME280;23602;51.084;7.090;2023-04-06T12:27:18;100045.56;;;13.46;50.92
37764;BME280;23602;51.084;7.090;2023-04-06T12:29:54;100046.47;;;13.69;56.27
37764;BME280;23602;51.084;7.090;2023-04-06T12:32:28;100045.69;;;13.39;50.92
37764;BME280;23602;51.084;7.090;2023-04-06T12:34:53;100041.28;;;13.68;53.60
37764;BME280;23602;51.084;7.090;2023-04-06T12:37:18;100048.88;;;14.01;57.02
37764;BME280;23602;51.084;7.090;2023-04-06T12:39:45;100045.22;;;14.18;54.80
37764;BME280;23602;51.084;7.090;2023-04-06T12:42:11;100052.41;;;14.36;54.00
37764;BME280;23602;51.084;7.090;2023-04-06T12:44:37;100043.88;;;13.86;49.35
37764;BME280;23602;51.084;7.090;2023-04-06T12:47:03;100050.06;;;13.52;52.04
37764;BME280;23602;51.084;7.090;2023-04-06T12:49:32;100042.88;;;13.46;49.76
37764;BME280;23602;51.084;7.090;2023-04-06T12:51:57;100045.13;;;13.60;57.02
37764;BME280;23602;51.084;7.090;2023-04-06T12:54:23;100052.81;;;13.86;59.43
37764;BME280;23602;51.084;7.090;2023-04-06T12:56:51;100040.03;;;13.93;54.34
37764;BME280;23602;51.084;7.090;2023-04-06T12:59:17;100035.09;;;14.02;52.29